Flight Track Log - Related Links

Times and Time Zones

All times are in EDT time to prevent confusion due to time zone crossing. See the UAL980 flight status page for this flight to view local times or setup timezone preferences in your user account.

Time Position Orientation Groundspeed Altitude Reporting Facility
EDT Latitude Longitude Course Direction KTS MPH feet Rate Location/Type
Mon 01:20:15 PM 29.9833 -95.3058 129° Southeast  Level FlightAware Approximate
Mon 01:21:47 PM 29.9542 -95.2639 85° East 241 277 3,800  Level Houston Center
Mon 01:22:38 PM 29.9600 -95.1922 87° East 279 321 6,000 2,757 Climbing Houston Center
Mon 01:23:38 PM 29.9644 -95.1061 87° East 279 321 8,900 2,550 Climbing Houston Center
Mon 01:24:38 PM 29.9689 -95.0056 88° East 290 334 11,100 1,750 Climbing Houston Center
Mon 01:25:38 PM 29.9714 -94.9028 86° East 316 364 12,400 1,900 Climbing Houston Center
Mon 01:26:38 PM 29.9786 -94.7783 87° East 360 414 14,900 2,571 Climbing Houston Center
Mon 01:27:37 PM 29.9836 -94.6464 88° East 389 448 17,500 2,350 Climbing Houston Center
Mon 01:28:38 PM 29.9886 -94.5122 88° East 408 470 19,600 2,132 Climbing Houston Center
Mon 01:29:38 PM 29.9936 -94.3639 84° East 415 478 21,800 1,966 Climbing Houston Center
Mon 01:30:37 PM 30.0069 -94.2203 81° East 431 496 23,500 1,750 Climbing Houston Center
Mon 01:31:38 PM 30.0264 -94.0697 82° East 452 520 25,300 1,686 Climbing Houston Center
Mon 01:32:38 PM 30.0436 -93.9189 83° East 471 542 26,900 1,500 Climbing Houston Center
Mon 01:33:38 PM 30.0608 -93.7633 82° East 482 555 28,300 1,350 Climbing Houston Center
Mon 01:34:38 PM 30.0800 -93.6006 82° East 492 566 29,600 1,400 Climbing Houston Center
Mon 01:35:38 PM 30.1008 -93.4378 83° East 502 578 31,100 1,550 Climbing Houston Center
Mon 01:36:38 PM 30.1175 -93.2769 81° East 502 578 32,700 1,400 Climbing Houston Center
Mon 01:37:38 PM 30.1381 -93.1308 78° East 502 578 33,900 1,210 Climbing Houston Center
Mon 01:38:37 PM 30.1667 -92.9703 76° East 502 578 35,100 1,150 Climbing Houston Center
Mon 01:39:38 PM 30.1994 -92.8122 77° East 502 578 36,200 942 Climbing Houston Center
Mon 01:40:38 PM 30.2300 -92.6539 77° East 502 578 37,000 403 Climbing Houston Center
Mon 01:41:37 PM 30.2625 -92.4931 79° East 507 583 37,000  Level Houston Center
Mon 01:42:37 PM 30.2883 -92.3322 77° East 507 583 37,000  Level Houston Center
Mon 01:43:38 PM 30.3203 -92.1686 78° East 512 589 37,000  Level Houston Center
Mon 01:44:38 PM 30.3500 -92.0075 78° East 512 589 37,000  Level Houston Center
Mon 01:45:38 PM 30.3797 -91.8439 75° East 507 583 37,000  Level Houston Center
Mon 01:46:38 PM 30.4153 -91.6875 78° East 507 583 37,000 -50 Level Houston Center
Mon 01:47:38 PM 30.4444 -91.5239 79° East 502 578 36,900  Descending Houston Center
Mon 01:48:37 PM 30.4711 -91.3647 76° East 507 583 37,000 50 Climbing Houston Center
Mon 01:49:38 PM 30.5042 -91.2081 75° East 507 583 37,000 -50 Level Houston Center
Mon 01:50:37 PM 30.5411 -91.0486 75° East 507 583 36,900  Descending Houston Center
Mon 01:51:38 PM 30.5781 -90.8917 77° East 507 583 37,000  Climbing Houston Center
Mon 01:52:38 PM 30.6103 -90.7322 75° East 507 583 36,900  Descending Houston Center
Mon 01:53:38 PM 30.6467 -90.5750 75° East 507 583 37,000 50 Climbing Houston Center
Mon 01:54:38 PM 30.6831 -90.4175 76° East 507 583 37,000 -50 Level Houston Center
Mon 01:55:38 PM 30.7169 -90.2625 75° East 501 577 36,900  Descending Houston Center
Mon 01:56:38 PM 30.7547 -90.1025 76° East 501 577 37,000  Climbing Houston Center
Mon 01:57:38 PM 30.7922 -89.9303 75° East 496 571 36,900  Descending Houston Center
Mon 01:58:37 PM 30.8278 -89.7703 75° East 496 571 37,000  Climbing Houston Center
Mon 01:59:37 PM 30.8631 -89.6147 76° East 496 571 36,900  Descending Houston Center
Mon 02:00:38 PM 30.8961 -89.4544 75° East 496 571 37,000 50 Climbing Houston Center
Mon 02:01:38 PM 30.9311 -89.3011 64° Northeast 491 565 37,000  Level Houston Center
Mon 02:02:37 PM 30.9911 -89.1569 61° Northeast 486 559 37,000 -50 Level Houston Center
Mon 02:03:38 PM 31.0572 -89.0169 63° Northeast 486 559 36,900  Descending Houston Center
Mon 02:04:38 PM 31.1169 -88.8772 61° Northeast 486 559 37,000 38 Climbing Houston Center
Mon 02:06:16 PM 31.2244 -88.6497 62° Northeast 487 560 37,000  Level Atlanta Center
Mon 02:07:16 PM 31.2881 -88.5094 63° Northeast 487 560 37,000  Level Atlanta Center
Mon 02:08:16 PM 31.3517 -88.3644 63° Northeast 487 560 37,000  Level Atlanta Center
Mon 02:09:16 PM 31.4150 -88.2214 63° Northeast 487 560 37,000  Level Atlanta Center
Mon 02:10:16 PM 31.4758 -88.0831 64° Northeast 482 555 37,000  Level Atlanta Center
Mon 02:11:16 PM 31.5347 -87.9394 62° Northeast 482 555 37,000  Level Atlanta Center
Mon 02:12:16 PM 31.5975 -87.7983 63° Northeast 482 555 37,000  Level Atlanta Center
Mon 02:13:16 PM 31.6469 -87.6858 64° Northeast 482 555 37,000  Level Atlanta Center
Mon 02:14:16 PM 31.7119 -87.5322 63° Northeast 477 549 37,000  Level Atlanta Center
Mon 02:15:16 PM 31.7742 -87.3903 65° Northeast 482 555 37,000  Level Atlanta Center
Mon 02:16:16 PM 31.8303 -87.2483 63° Northeast 477 549 37,000  Level Atlanta Center
Mon 02:17:16 PM 31.8900 -87.1111 64° Northeast 477 549 37,000  Level Atlanta Center
Mon 02:18:16 PM 31.9497 -86.9686 63° Northeast 477 549 37,000  Level Atlanta Center
Mon 02:19:16 PM 32.0094 -86.8311 62° Northeast 477 549 37,000  Level Atlanta Center
Mon 02:20:16 PM 32.0708 -86.6933 64° Northeast 472 543 37,000  Level Atlanta Center
Mon 02:21:16 PM 32.1281 -86.5528 62° Northeast 472 543 37,000  Level Atlanta Center
Mon 02:22:16 PM 32.1892 -86.4169 65° Northeast 465 535 37,000  Level Atlanta Center
Mon 02:23:16 PM 32.2483 -86.2686 56° Northeast 460 529 37,000  Level Atlanta Center
Mon 02:24:16 PM 32.3214 -86.1403 53° Northeast 465 535 37,000  Level Atlanta Center
Mon 02:25:16 PM 32.4008 -86.0142 55° Northeast 471 542 37,000  Level Atlanta Center
Mon 02:26:16 PM 32.4717 -85.8928 54° Northeast 463 533 37,000  Level Atlanta Center
Mon 02:27:16 PM 32.5464 -85.7686 54° Northeast 486 559 37,000  Level Atlanta Center
Mon 02:28:16 PM 32.6211 -85.6444 55° Northeast 480 552 37,000  Level Atlanta Center
Mon 02:29:16 PM 32.6936 -85.5197 55° Northeast 469 540 37,000  Level Atlanta Center
Mon 02:30:16 PM 32.7703 -85.3903 54° Northeast 469 540 37,000  Level Atlanta Center
Mon 02:31:16 PM 32.8553 -85.2531 57° Northeast 469 540 37,000  Level Atlanta Center
Mon 02:32:16 PM 32.9233 -85.1278 54° Northeast 459 528 37,000  Level Atlanta Center
Mon 02:33:16 PM 32.9994 -85.0022 56° Northeast 459 528 37,000  Level Atlanta Center
Mon 02:34:16 PM 33.0650 -84.8864 55° Northeast 464 534 37,000  Level Atlanta Center
Mon 02:35:16 PM 33.1408 -84.7583 57° Northeast 464 534 37,000  Level Atlanta Center
Mon 02:36:16 PM 33.2125 -84.6272 56° Northeast 464 534 37,000  Level Atlanta Center
Mon 02:37:16 PM 33.2861 -84.4986 56° Northeast 464 534 37,000  Level Atlanta Center
Mon 02:38:16 PM 33.3597 -84.3697 56° Northeast 464 534 37,000  Level Atlanta Center
Mon 02:39:16 PM 33.4331 -84.2381 56° Northeast 464 534 37,000  Level Atlanta Center
Mon 02:40:16 PM 33.5061 -84.1061 55° Northeast 464 534 37,000  Level Atlanta Center
Mon 02:41:16 PM 33.5814 -83.9764 55° Northeast 469 540 37,000  Level Atlanta Center
Mon 02:42:16 PM 33.6564 -83.8467 56° Northeast 469 540 37,000  Level Atlanta Center
Mon 02:43:16 PM 33.7292 -83.7167 56° Northeast 469 540 37,000  Level Atlanta Center
Mon 02:44:16 PM 33.8017 -83.5864 56° Northeast 464 534 37,000  Level Atlanta Center
Mon 02:45:16 PM 33.8825 -83.4433 58° Northeast 464 534 37,000  Level Atlanta Center
Mon 02:46:16 PM 33.9528 -83.3100 56° Northeast 464 534 37,000  Level Atlanta Center
Mon 02:47:16 PM 34.0269 -83.1767 58° Northeast 469 540 37,000  Level Atlanta Center
Mon 02:48:16 PM 34.0969 -83.0403 58° Northeast 469 540 37,000  Level Atlanta Center
Mon 02:49:16 PM 34.1667 -82.9064 58° Northeast 469 540 37,000  Level Atlanta Center
Mon 02:50:16 PM 34.2364 -82.7725 58° Northeast 469 540 37,000  Level Atlanta Center
Mon 02:51:16 PM 34.3058 -82.6381 57° Northeast 469 540 37,000  Level Atlanta Center
Mon 02:52:16 PM 34.3775 -82.5061 58° Northeast 469 540 37,000  Level Atlanta Center
Mon 02:53:16 PM 34.4467 -82.3714 59° Northeast 469 540 37,000  Level Atlanta Center
Mon 02:54:16 PM 34.5156 -82.2336 57° Northeast 469 540 37,000  Level Atlanta Center
Mon 02:55:16 PM 34.5867 -82.1011 58° Northeast 469 540 37,000  Level Atlanta Center
Mon 02:56:16 PM 34.6553 -81.9656 58° Northeast 469 540 37,000  Level Atlanta Center
Mon 02:57:16 PM 34.7181 -81.8453 59° Northeast 474 545 37,000  Level Atlanta Center
Mon 02:58:16 PM 34.7864 -81.7069 59° Northeast 474 545 37,000  Level Atlanta Center
Mon 02:59:16 PM 34.8547 -81.5708 59° Northeast 474 545 37,000  Level Atlanta Center
Mon 03:00:16 PM 34.9228 -81.4319 58° Northeast 474 545 37,000  Level Atlanta Center
Mon 03:01:16 PM 34.9908 -81.2981 59° Northeast 474 545 37,000  Level Atlanta Center
Mon 03:02:18 PM 35.0586 -81.1589 58° Northeast 474 545 37,000  Level Atlanta Center
Mon 03:03:28 PM 35.1422 -80.9933 59° Northeast 474 545 37,000  Level Atlanta Center
Mon 03:04:28 PM 35.2097 -80.8561 59° Northeast 474 545 37,000  Level Atlanta Center
Mon 03:05:28 PM 35.2789 -80.7161 60° Northeast 474 545 37,000  Level Atlanta Center
Mon 03:07:18 PM 35.4064 -80.4492 58° Northeast 471 542 37,000  Level Washington Center
Mon 03:08:18 PM 35.4767 -80.3106 60° Northeast 471 542 37,000  Level Washington Center
Mon 03:09:19 PM 35.5403 -80.1767 59° Northeast 471 542 37,000  Level Washington Center
Mon 03:10:18 PM 35.6014 -80.0522 58° Northeast 471 542 37,000  Level Washington Center
Mon 03:11:19 PM 35.6689 -79.9181 61° Northeast 464 534 37,000  Level Washington Center
Mon 03:12:19 PM 35.7344 -79.7731 45° Northeast 469 540 37,000  Level Washington Center
Mon 03:42:19 PM 38.4803 -76.2203 36° Northeast 475 547 37,000 -325 Level Washington Center
Mon 03:48:17 PM 39.0925 -75.6503 37° Northeast 473 544 25,300 -1,871 Descending Washington Center
Mon 03:49:19 PM 39.2072 -75.5381 35° Northeast 453 521 23,900 -1,400 Descending Washington Center
Mon 03:50:17 PM 39.3072 -75.4467 34° Northeast 448 516 22,500 -1,424 Descending Washington Center
Mon 03:51:17 PM 39.3967 -75.3686 35° Northeast 436 502 21,100 -1,550 Descending Washington Center
Mon 03:52:17 PM 39.4903 -75.2850 36° Northeast 423 487 19,400 -1,100 Descending Washington Center
Mon 03:53:17 PM 39.5794 -75.2011 35° Northeast 410 472 18,900 -787 Descending Washington Center
Mon 03:54:19 PM 39.6708 -75.1169 34° Northeast 403 464 17,800 -1,672 Descending Washington Center
Mon 03:55:19 PM 39.7683 -75.0300 33° Northeast 390 449 15,500 -1,831 Descending Washington Center
Mon 03:56:17 PM 39.8472 -74.9644 42° Northeast 385 443 14,200 -1,390 Descending Washington Center
Mon 03:58:16 PM 40.0000 -74.7833 49° Northeast 361 415 11,400 -1,207 Descending New York TRACON
Mon 03:59:16 PM 40.0667 -74.6833 44° Northeast 360 414 10,600 -672 Descending New York TRACON
Mon 04:00:21 PM 40.1333 -74.6000 46° Northeast 308 354 10,000 -450 Descending New York TRACON
Mon 04:01:16 PM 40.1833 -74.5333 45° Northeast 256 295 9,700 -522 Descending New York TRACON
Mon 04:02:16 PM 40.2333 -74.4667 45° Northeast 248 285 9,000 -700 Descending New York TRACON
Mon 04:03:16 PM 40.2833 -74.4000 45° Northeast 251 289 8,300 -950 Descending New York TRACON
Mon 04:04:16 PM 40.3333 -74.3333 45° Northeast 249 287 7,100 -650 Descending New York TRACON
Mon 04:05:16 PM 40.3833 -74.2667 45° Northeast 248 285 7,000 -48 Descending New York TRACON
Mon 04:06:22 PM 40.4333 -74.2000 37° Northeast 244 281 7,000 -100 Level New York TRACON
Mon 04:07:16 PM 40.4833 -74.1500 45° Northeast 244 281 6,800 -800 Descending New York TRACON
Mon 04:08:22 PM 40.5333 -74.0833 27° Northeast 240 276 5,400 -1,238 Descending New York TRACON
Mon 04:09:22 PM 40.5833 -74.0500 360° North 234 269 4,200 -700 Descending New York TRACON
Mon 04:10:22 PM 40.6500 -74.0500 11° North 232 267 4,000 -100 Descending New York TRACON
Mon 04:11:22 PM 40.7167 -74.0333 21° North 230 265 4,000 -50 Level New York TRACON
Mon 04:12:22 PM 40.7833 -74.0000 37° Northeast 236 272 3,900 -500 Descending New York TRACON
Mon 04:13:22 PM 40.8333 -73.9500 57° Northeast 228 262 3,000 -500 Descending New York TRACON
Mon 04:14:22 PM 40.8667 -73.8833 37° Northeast 214 246 2,900 -450 Descending New York TRACON
Mon 04:15:22 PM 40.9167 -73.8333 37° Northeast 207 238 2,100 -800 Descending New York TRACON

Login

Don't have an account? Register now (free) for customized features, flight alerts, and more!